sensor_id;sensor_type;location;lat;lon;timestamp;P1;durP1;ratioP1;P2;durP2;ratioP2
9256;SDS011;4665;51.368;6.782;2023-02-12T00:00:38;38.70;;;24.43;;
9256;SDS011;4665;51.368;6.782;2023-02-12T00:03:05;39.03;;;26.17;;
9256;SDS011;4665;51.368;6.782;2023-02-12T00:05:30;36.37;;;25.57;;
9256;SDS011;4665;51.368;6.782;2023-02-12T00:07:56;39.60;;;27.83;;
9256;SDS011;4665;51.368;6.782;2023-02-12T00:10:23;37.77;;;24.70;;
9256;SDS011;4665;51.368;6.782;2023-02-12T00:12:48;37.30;;;25.13;;
9256;SDS011;4665;51.368;6.782;2023-02-12T00:15:14;45.23;;;25.57;;
9256;SDS011;4665;51.368;6.782;2023-02-12T00:17:39;43.93;;;27.20;;
9256;SDS011;4665;51.368;6.782;2023-02-12T00:20:05;40.67;;;27.40;;
9256;SDS011;4665;51.368;6.782;2023-02-12T00:22:31;44.93;;;28.37;;
9256;SDS011;4665;51.368;6.782;2023-02-12T00:24:56;49.27;;;29.50;;
9256;SDS011;4665;51.368;6.782;2023-02-12T00:27:22;43.03;;;27.03;;
9256;SDS011;4665;51.368;6.782;2023-02-12T00:29:48;41.67;;;26.37;;
9256;SDS011;4665;51.368;6.782;2023-02-12T00:32:14;47.37;;;29.57;;
9256;SDS011;4665;51.368;6.782;2023-02-12T00:34:43;44.27;;;27.43;;
9256;SDS011;4665;51.368;6.782;2023-02-12T00:37:10;41.20;;;26.37;;
9256;SDS011;4665;51.368;6.782;2023-02-12T00:39:36;39.77;;;26.53;;
9256;SDS011;4665;51.368;6.782;2023-02-12T00:42:02;40.83;;;26.10;;
9256;SDS011;4665;51.368;6.782;2023-02-12T00:44:28;39.67;;;25.00;;
9256;SDS011;4665;51.368;6.782;2023-02-12T00:46:53;38.47;;;26.10;;
9256;SDS011;4665;51.368;6.782;2023-02-12T00:49:19;41.33;;;27.03;;
9256;SDS011;4665;51.368;6.782;2023-02-12T00:51:44;36.37;;;25.07;;
9256;SDS011;4665;51.368;6.782;2023-02-12T00:54:10;40.20;;;26.50;;
9256;SDS011;4665;51.368;6.782;2023-02-12T00:56:35;37.80;;;26.43;;
9256;SDS011;4665;51.368;6.782;2023-02-12T00:59:01;47.73;;;28.00;;
9256;SDS011;4665;51.368;6.782;2023-02-12T01:01:26;40.13;;;26.47;;
9256;SDS011;4665;51.368;6.782;2023-02-12T01:03:52;37.13;;;24.90;;
9256;SDS011;4665;51.368;6.782;2023-02-12T01:06:17;42.67;;;28.77;;
9256;SDS011;4665;51.368;6.782;2023-02-12T01:08:42;49.67;;;28.73;;
9256;SDS011;4665;51.368;6.782;2023-02-12T01:11:10;47.40;;;30.00;;
9256;SDS011;4665;51.368;6.782;2023-02-12T01:13:37;49.67;;;29.60;;
9256;SDS011;4665;51.368;6.782;2023-02-12T01:16:06;43.30;;;26.43;;
9256;SDS011;4665;51.368;6.782;2023-02-12T01:18:33;44.17;;;27.90;;
9256;SDS011;4665;51.368;6.782;2023-02-12T01:20:59;40.53;;;27.90;;
9256;SDS011;4665;51.368;6.782;2023-02-12T01:23:25;45.30;;;27.97;;
9256;SDS011;4665;51.368;6.782;2023-02-12T01:25:51;40.13;;;26.23;;
9256;SDS011;4665;51.368;6.782;2023-02-12T01:28:16;39.23;;;26.00;;
9256;SDS011;4665;51.368;6.782;2023-02-12T01:30:42;40.47;;;25.97;;
9256;SDS011;4665;51.368;6.782;2023-02-12T01:33:07;37.80;;;24.60;;
9256;SDS011;4665;51.368;6.782;2023-02-12T01:35:33;41.53;;;27.33;;
9256;SDS011;4665;51.368;6.782;2023-02-12T01:37:58;36.67;;;25.07;;
9256;SDS011;4665;51.368;6.782;2023-02-12T01:40:24;36.00;;;24.27;;
9256;SDS011;4665;51.368;6.782;2023-02-12T01:42:49;37.63;;;25.70;;
9256;SDS011;4665;51.368;6.782;2023-02-12T01:47:40;43.03;;;28.27;;
9256;SDS011;4665;51.368;6.782;2023-02-12T01:50:09;37.50;;;26.37;;
9256;SDS011;4665;51.368;6.782;2023-02-12T01:52:37;34.63;;;24.67;;
9256;SDS011;4665;51.368;6.782;2023-02-12T01:55:07;38.70;;;25.73;;
9256;SDS011;4665;51.368;6.782;2023-02-12T01:57:35;39.93;;;27.27;;
9256;SDS011;4665;51.368;6.782;2023-02-12T02:00:07;37.50;;;25.37;;
9256;SDS011;4665;51.368;6.782;2023-02-12T02:02:37;33.00;;;22.87;;
9256;SDS011;4665;51.368;6.782;2023-02-12T02:05:03;34.90;;;23.80;;
9256;SDS011;4665;51.368;6.782;2023-02-12T02:07:30;37.43;;;25.07;;
9256;SDS011;4665;51.368;6.782;2023-02-12T02:09:56;35.10;;;25.13;;
9256;SDS011;4665;51.368;6.782;2023-02-12T02:12:22;41.77;;;26.40;;
9256;SDS011;4665;51.368;6.782;2023-02-12T02:15:08;40.50;;;25.83;;
9256;SDS011;4665;51.368;6.782;2023-02-12T02:34:10;34.83;;;24.40;;
9256;SDS011;4665;51.368;6.782;2023-02-12T02:39:47;41.67;;;27.37;;
9256;SDS011;4665;51.368;6.782;2023-02-12T02:42:30;41.80;;;27.00;;
9256;SDS011;4665;51.368;6.782;2023-02-12T02:45:03;37.50;;;25.00;;
9256;SDS011;4665;51.368;6.782;2023-02-12T02:47:50;38.87;;;25.20;;
9256;SDS011;4665;51.368;6.782;2023-02-12T02:50:22;38.57;;;26.07;;
9256;SDS011;4665;51.368;6.782;2023-02-12T02:53:05;38.33;;;24.43;;
9256;SDS011;4665;51.368;6.782;2023-02-12T02:55:36;45.03;;;27.27;;
9256;SDS011;4665;51.368;6.782;2023-02-12T02:58:23;44.43;;;28.77;;
9256;SDS011;4665;51.368;6.782;2023-02-12T03:01:05;37.03;;;24.83;;
9256;SDS011;4665;51.368;6.782;2023-02-12T03:03:52;37.57;;;25.07;;
9256;SDS011;4665;51.368;6.782;2023-02-12T03:06:42;40.20;;;25.57;;
9256;SDS011;4665;51.368;6.782;2023-02-12T03:09:20;33.13;;;23.67;;
9256;SDS011;4665;51.368;6.782;2023-02-12T03:11:54;39.03;;;24.80;;
9256;SDS011;4665;51.368;6.782;2023-02-12T03:14:28;40.70;;;26.40;;
9256;SDS011;4665;51.368;6.782;2023-02-12T03:17:12;39.47;;;26.20;;
9256;SDS011;4665;51.368;6.782;2023-02-12T03:19:44;38.50;;;24.63;;
9256;SDS011;4665;51.368;6.782;2023-02-12T03:22:17;43.50;;;25.00;;
9256;SDS011;4665;51.368;6.782;2023-02-12T03:24:50;38.00;;;24.93;;
9256;SDS011;4665;51.368;6.782;2023-02-12T03:27:28;35.30;;;23.63;;
9256;SDS011;4665;51.368;6.782;2023-02-12T03:29:58;33.93;;;23.37;;
9256;SDS011;4665;51.368;6.782;2023-02-12T03:35:09;35.40;;;23.07;;
9256;SDS011;4665;51.368;6.782;2023-02-12T03:37:44;31.40;;;22.37;;
9256;SDS011;4665;51.368;6.782;2023-02-12T03:42:56;35.03;;;24.03;;
9256;SDS011;4665;51.368;6.782;2023-02-12T03:53:00;35.83;;;23.90;;
9256;SDS011;4665;51.368;6.782;2023-02-12T03:55:26;41.03;;;24.63;;
9256;SDS011;4665;51.368;6.782;2023-02-12T03:57:57;38.07;;;26.40;;
9256;SDS011;4665;51.368;6.782;2023-02-12T04:00:25;39.60;;;25.70;;
9256;SDS011;4665;51.368;6.782;2023-02-12T04:02:52;41.33;;;26.57;;
9256;SDS011;4665;51.368;6.782;2023-02-12T04:07:49;36.00;;;23.27;;
9256;SDS011;4665;51.368;6.782;2023-02-12T04:10:16;42.00;;;26.93;;
9256;SDS011;4665;51.368;6.782;2023-02-12T04:12:48;43.37;;;26.40;;
9256;SDS011;4665;51.368;6.782;2023-02-12T04:29:35;45.70;;;27.27;;
9256;SDS011;4665;51.368;6.782;2023-02-12T04:32:11;37.57;;;24.30;;
9256;SDS011;4665;51.368;6.782;2023-02-12T04:37:14;39.73;;;26.17;;
9256;SDS011;4665;51.368;6.782;2023-02-12T04:39:43;39.97;;;25.50;;
9256;SDS011;4665;51.368;6.782;2023-02-12T04:42:10;40.53;;;25.63;;
9256;SDS011;4665;51.368;6.782;2023-02-12T04:44:40;35.87;;;24.50;;
9256;SDS011;4665;51.368;6.782;2023-02-12T04:47:07;40.27;;;26.10;;
9256;SDS011;4665;51.368;6.782;2023-02-12T04:49:34;35.00;;;24.17;;
9256;SDS011;4665;51.368;6.782;2023-02-12T04:51:59;36.83;;;25.03;;
9256;SDS011;4665;51.368;6.782;2023-02-12T04:54:25;38.47;;;25.13;;
9256;SDS011;4665;51.368;6.782;2023-02-12T04:56:50;38.47;;;24.80;;
9256;SDS011;4665;51.368;6.782;2023-02-12T04:59:16;41.70;;;25.30;;
9256;SDS011;4665;51.368;6.782;2023-02-12T05:01:42;35.07;;;23.57;;
9256;SDS011;4665;51.368;6.782;2023-02-12T05:04:08;39.60;;;24.67;;
9256;SDS011;4665;51.368;6.782;2023-02-12T05:06:36;35.73;;;23.20;;
9256;SDS011;4665;51.368;6.782;2023-02-12T05:09:03;38.97;;;24.17;;
9256;SDS011;4665;51.368;6.782;2023-02-12T05:11:29;37.80;;;24.80;;
9256;SDS011;4665;51.368;6.782;2023-02-12T05:13:55;33.03;;;22.63;;
9256;SDS011;4665;51.368;6.782;2023-02-12T05:16:20;42.30;;;24.97;;
9256;SDS011;4665;51.368;6.782;2023-02-12T05:18:46;35.83;;;23.13;;
9256;SDS011;4665;51.368;6.782;2023-02-12T05:21:12;36.13;;;23.90;;
9256;SDS011;4665;51.368;6.782;2023-02-12T05:23:38;33.40;;;22.40;;
9256;SDS011;4665;51.368;6.782;2023-02-12T05:26:05;36.57;;;22.93;;
9256;SDS011;4665;51.368;6.782;2023-02-12T05:28:34;34.40;;;23.00;;
9256;SDS011;4665;51.368;6.782;2023-02-12T05:31:00;35.47;;;23.53;;
9256;SDS011;4665;51.368;6.782;2023-02-12T05:33:27;35.20;;;21.77;;
9256;SDS011;4665;51.368;6.782;2023-02-12T05:35:53;36.63;;;22.47;;
9256;SDS011;4665;51.368;6.782;2023-02-12T05:38:19;33.47;;;23.03;;
9256;SDS011;4665;51.368;6.782;2023-02-12T05:40:45;32.60;;;21.90;;
9256;SDS011;4665;51.368;6.782;2023-02-12T05:43:11;36.63;;;25.07;;
9256;SDS011;4665;51.368;6.782;2023-02-12T05:45:36;37.37;;;24.57;;
9256;SDS011;4665;51.368;6.782;2023-02-12T05:48:02;40.20;;;26.30;;
9256;SDS011;4665;51.368;6.782;2023-02-12T05:50:28;39.27;;;24.53;;
9256;SDS011;4665;51.368;6.782;2023-02-12T05:52:53;35.43;;;23.33;;
9256;SDS011;4665;51.368;6.782;2023-02-12T05:55:18;35.60;;;24.37;;
9256;SDS011;4665;51.368;6.782;2023-02-12T05:57:44;27.87;;;20.37;;
9256;SDS011;4665;51.368;6.782;2023-02-12T06:00:10;37.10;;;23.50;;
9256;SDS011;4665;51.368;6.782;2023-02-12T06:02:36;36.17;;;23.87;;
9256;SDS011;4665;51.368;6.782;2023-02-12T06:05:01;36.50;;;23.17;;
9256;SDS011;4665;51.368;6.782;2023-02-12T06:07:27;30.80;;;20.63;;
9256;SDS011;4665;51.368;6.782;2023-02-12T06:09:53;39.03;;;25.50;;
9256;SDS011;4665;51.368;6.782;2023-02-12T06:12:19;38.00;;;24.53;;
9256;SDS011;4665;51.368;6.782;2023-02-12T06:14:45;36.13;;;24.97;;
9256;SDS011;4665;51.368;6.782;2023-02-12T06:17:10;34.80;;;24.33;;
9256;SDS011;4665;51.368;6.782;2023-02-12T06:19:36;37.93;;;24.00;;
9256;SDS011;4665;51.368;6.782;2023-02-12T06:22:01;37.80;;;24.53;;
9256;SDS011;4665;51.368;6.782;2023-02-12T06:24:27;36.47;;;24.40;;
9256;SDS011;4665;51.368;6.782;2023-02-12T06:26:52;41.20;;;25.40;;
9256;SDS011;4665;51.368;6.782;2023-02-12T06:29:18;44.07;;;24.97;;
9256;SDS011;4665;51.368;6.782;2023-02-12T06:31:44;31.80;;;21.83;;
9256;SDS011;4665;51.368;6.782;2023-02-12T06:34:11;38.90;;;24.93;;
9256;SDS011;4665;51.368;6.782;2023-02-12T06:36:39;33.27;;;22.90;;
9256;SDS011;4665;51.368;6.782;2023-02-12T06:39:06;35.30;;;23.43;;
9256;SDS011;4665;51.368;6.782;2023-02-12T06:41:32;31.97;;;22.90;;
9256;SDS011;4665;51.368;6.782;2023-02-12T06:43:58;31.30;;;21.00;;
9256;SDS011;4665;51.368;6.782;2023-02-12T06:46:24;40.27;;;25.00;;
9256;SDS011;4665;51.368;6.782;2023-02-12T06:48:56;32.47;;;21.77;;
9256;SDS011;4665;51.368;6.782;2023-02-12T06:51:23;37.80;;;24.03;;
9256;SDS011;4665;51.368;6.782;2023-02-12T07:00:29;34.57;;;23.17;;
9256;SDS011;4665;51.368;6.782;2023-02-12T07:03:06;30.30;;;20.93;;
9256;SDS011;4665;51.368;6.782;2023-02-12T07:05:31;38.70;;;23.27;;
9256;SDS011;4665;51.368;6.782;2023-02-12T07:07:57;35.93;;;23.73;;
9256;SDS011;4665;51.368;6.782;2023-02-12T07:13:36;33.30;;;22.63;;
9256;SDS011;4665;51.368;6.782;2023-02-12T07:18:56;39.67;;;24.47;;
9256;SDS011;4665;51.368;6.782;2023-02-12T07:21:27;36.17;;;23.53;;
9256;SDS011;4665;51.368;6.782;2023-02-12T07:23:52;34.60;;;23.07;;
9256;SDS011;4665;51.368;6.782;2023-02-12T07:26:19;37.07;;;23.93;;
9256;SDS011;4665;51.368;6.782;2023-02-12T07:28:45;36.70;;;24.37;;
9256;SDS011;4665;51.368;6.782;2023-02-12T07:31:12;40.50;;;25.53;;
9256;SDS011;4665;51.368;6.782;2023-02-12T07:33:39;39.60;;;26.20;;
9256;SDS011;4665;51.368;6.782;2023-02-12T07:39:13;42.73;;;26.17;;
9256;SDS011;4665;51.368;6.782;2023-02-12T07:41:43;39.93;;;25.73;;
9256;SDS011;4665;51.368;6.782;2023-02-12T07:44:09;38.37;;;24.77;;
9256;SDS011;4665;51.368;6.782;2023-02-12T07:46:48;38.53;;;26.20;;
9256;SDS011;4665;51.368;6.782;2023-02-12T07:49:15;41.50;;;26.30;;
9256;SDS011;4665;51.368;6.782;2023-02-12T07:54:47;38.93;;;25.57;;
9256;SDS011;4665;51.368;6.782;2023-02-12T08:00:16;42.80;;;27.20;;
9256;SDS011;4665;51.368;6.782;2023-02-12T08:02:42;48.97;;;29.40;;
9256;SDS011;4665;51.368;6.782;2023-02-12T08:05:07;40.23;;;25.80;;
9256;SDS011;4665;51.368;6.782;2023-02-12T08:10:42;40.80;;;26.43;;
9256;SDS011;4665;51.368;6.782;2023-02-12T08:13:14;40.63;;;25.93;;
9256;SDS011;4665;51.368;6.782;2023-02-12T08:15:39;43.60;;;26.80;;
9256;SDS011;4665;51.368;6.782;2023-02-12T08:21:14;43.97;;;27.60;;
9256;SDS011;4665;51.368;6.782;2023-02-12T08:23:43;45.77;;;28.30;;
9256;SDS011;4665;51.368;6.782;2023-02-12T08:26:10;45.57;;;27.60;;
9256;SDS011;4665;51.368;6.782;2023-02-12T08:31:26;46.40;;;28.33;;
9256;SDS011;4665;51.368;6.782;2023-02-12T08:36:46;41.87;;;26.33;;
9256;SDS011;4665;51.368;6.782;2023-02-12T08:39:13;49.90;;;28.23;;
9256;SDS011;4665;51.368;6.782;2023-02-12T08:41:41;44.20;;;27.20;;
9256;SDS011;4665;51.368;6.782;2023-02-12T08:44:07;44.03;;;27.23;;
9256;SDS011;4665;51.368;6.782;2023-02-12T08:46:45;49.60;;;28.87;;
9256;SDS011;4665;51.368;6.782;2023-02-12T08:49:13;49.07;;;30.17;;
9256;SDS011;4665;51.368;6.782;2023-02-12T08:51:46;49.43;;;29.57;;
9256;SDS011;4665;51.368;6.782;2023-02-12T08:54:14;40.57;;;27.60;;
9256;SDS011;4665;51.368;6.782;2023-02-12T08:59:50;52.70;;;30.33;;
9256;SDS011;4665;51.368;6.782;2023-02-12T09:05:38;46.87;;;27.13;;
9256;SDS011;4665;51.368;6.782;2023-02-12T09:08:05;47.97;;;28.53;;
9256;SDS011;4665;51.368;6.782;2023-02-12T09:10:31;42.00;;;26.83;;
9256;SDS011;4665;51.368;6.782;2023-02-12T09:15:47;46.40;;;28.30;;
9256;SDS011;4665;51.368;6.782;2023-02-12T09:18:15;45.93;;;29.20;;
9256;SDS011;4665;51.368;6.782;2023-02-12T09:20:42;47.03;;;29.13;;
9256;SDS011;4665;51.368;6.782;2023-02-12T09:26:10;44.83;;;27.43;;
9256;SDS011;4665;51.368;6.782;2023-02-12T09:31:38;45.10;;;28.23;;
9256;SDS011;4665;51.368;6.782;2023-02-12T09:34:10;44.90;;;29.37;;
9256;SDS011;4665;51.368;6.782;2023-02-12T09:36:35;40.37;;;27.07;;
9256;SDS011;4665;51.368;6.782;2023-02-12T09:39:13;43.57;;;27.73;;
9256;SDS011;4665;51.368;6.782;2023-02-12T09:44:31;49.10;;;31.63;;
9256;SDS011;4665;51.368;6.782;2023-02-12T09:50:26;39.23;;;27.97;;
9256;SDS011;4665;51.368;6.782;2023-02-12T09:53:15;40.00;;;28.07;;
9256;SDS011;4665;51.368;6.782;2023-02-12T09:55:44;46.17;;;28.60;;
9256;SDS011;4665;51.368;6.782;2023-02-12T09:58:22;39.37;;;26.80;;
9256;SDS011;4665;51.368;6.782;2023-02-12T10:01:25;38.10;;;25.73;;
9256;SDS011;4665;51.368;6.782;2023-02-12T10:13:12;33.93;;;23.60;;
9256;SDS011;4665;51.368;6.782;2023-02-12T10:18:42;33.77;;;24.37;;
9256;SDS011;4665;51.368;6.782;2023-02-12T10:27:53;26.87;;;20.40;;
9256;SDS011;4665;51.368;6.782;2023-02-12T10:33:51;24.73;;;18.77;;
9256;SDS011;4665;51.368;6.782;2023-02-12T10:39:32;23.90;;;16.57;;
9256;SDS011;4665;51.368;6.782;2023-02-12T10:44:40;26.10;;;18.13;;
9256;SDS011;4665;51.368;6.782;2023-02-12T10:53:51;27.63;;;18.70;;
9256;SDS011;4665;51.368;6.782;2023-02-12T10:56:17;26.97;;;19.73;;
9256;SDS011;4665;51.368;6.782;2023-02-12T11:05:33;28.40;;;20.20;;
9256;SDS011;4665;51.368;6.782;2023-02-12T11:08:01;28.90;;;20.27;;
9256;SDS011;4665;51.368;6.782;2023-02-12T11:13:23;29.00;;;20.03;;
9256;SDS011;4665;51.368;6.782;2023-02-12T11:15:53;27.50;;;19.93;;
9256;SDS011;4665;51.368;6.782;2023-02-12T11:18:23;26.27;;;19.03;;
9256;SDS011;4665;51.368;6.782;2023-02-12T11:21:04;26.53;;;18.60;;
9256;SDS011;4665;51.368;6.782;2023-02-12T11:28:58;22.70;;;17.07;;
9256;SDS011;4665;51.368;6.782;2023-02-12T11:31:40;23.10;;;16.27;;
9256;SDS011;4665;51.368;6.782;2023-02-12T11:34:13;27.27;;;17.63;;
9256;SDS011;4665;51.368;6.782;2023-02-12T11:36:45;31.17;;;19.37;;
9256;SDS011;4665;51.368;6.782;2023-02-12T11:39:32;24.93;;;18.20;;
9256;SDS011;4665;51.368;6.782;2023-02-12T11:45:15;24.97;;;16.27;;
9256;SDS011;4665;51.368;6.782;2023-02-12T11:47:44;23.00;;;16.60;;
9256;SDS011;4665;51.368;6.782;2023-02-12T11:50:17;24.83;;;16.57;;
9256;SDS011;4665;51.368;6.782;2023-02-12T11:53:05;23.50;;;17.30;;
9256;SDS011;4665;51.368;6.782;2023-02-12T11:55:43;22.40;;;16.10;;
9256;SDS011;4665;51.368;6.782;2023-02-12T11:58:22;26.07;;;17.20;;
9256;SDS011;4665;51.368;6.782;2023-02-12T12:06:42;28.43;;;19.83;;
9256;SDS011;4665;51.368;6.782;2023-02-12T12:10:12;28.90;;;19.73;;
9256;SDS011;4665;51.368;6.782;2023-02-12T12:15:20;25.50;;;18.33;;
9256;SDS011;4665;51.368;6.782;2023-02-12T12:24:30;27.90;;;19.70;;
9256;SDS011;4665;51.368;6.782;2023-02-12T12:48:02;34.07;;;23.47;;
9256;SDS011;4665;51.368;6.782;2023-02-12T12:51:22;30.03;;;22.10;;
9256;SDS011;4665;51.368;6.782;2023-02-12T13:15:08;24.13;;;18.97;;
9256;SDS011;4665;51.368;6.782;2023-02-12T13:35:29;27.33;;;20.70;;
9256;SDS011;4665;51.368;6.782;2023-02-12T13:40:42;26.20;;;18.77;;
9256;SDS011;4665;51.368;6.782;2023-02-12T13:49:16;25.20;;;17.87;;
9256;SDS011;4665;51.368;6.782;2023-02-12T14:01:36;22.00;;;16.63;;
9256;SDS011;4665;51.368;6.782;2023-02-12T14:07:10;23.93;;;17.93;;
9256;SDS011;4665;51.368;6.782;2023-02-12T14:09:42;24.63;;;18.00;;
9256;SDS011;4665;51.368;6.782;2023-02-12T14:12:34;22.20;;;16.73;;
9256;SDS011;4665;51.368;6.782;2023-02-12T14:25:47;23.37;;;17.13;;
9256;SDS011;4665;51.368;6.782;2023-02-12T14:28:22;27.17;;;18.20;;
9256;SDS011;4665;51.368;6.782;2023-02-12T14:33:43;22.73;;;17.57;;
9256;SDS011;4665;51.368;6.782;2023-02-12T14:41:22;25.43;;;19.20;;
9256;SDS011;4665;51.368;6.782;2023-02-12T14:59:56;24.23;;;17.77;;
9256;SDS011;4665;51.368;6.782;2023-02-12T15:02:26;27.67;;;19.33;;
9256;SDS011;4665;51.368;6.782;2023-02-12T15:05:04;24.23;;;18.10;;
9256;SDS011;4665;51.368;6.782;2023-02-12T15:07:40;25.43;;;18.80;;
9256;SDS011;4665;51.368;6.782;2023-02-12T15:10:19;26.53;;;18.47;;
9256;SDS011;4665;51.368;6.782;2023-02-12T15:15:30;26.23;;;18.23;;
9256;SDS011;4665;51.368;6.782;2023-02-12T15:18:02;27.53;;;18.77;;
9256;SDS011;4665;51.368;6.782;2023-02-12T15:20:45;25.07;;;17.23;;
9256;SDS011;4665;51.368;6.782;2023-02-12T15:23:29;26.33;;;17.90;;
9256;SDS011;4665;51.368;6.782;2023-02-12T15:26:02;26.27;;;18.93;;
9256;SDS011;4665;51.368;6.782;2023-02-12T15:28:29;24.77;;;18.23;;
9256;SDS011;4665;51.368;6.782;2023-02-12T15:30:59;27.40;;;18.90;;
9256;SDS011;4665;51.368;6.782;2023-02-12T15:33:33;28.90;;;19.37;;
9256;SDS011;4665;51.368;6.782;2023-02-12T15:36:02;23.27;;;16.90;;
9256;SDS011;4665;51.368;6.782;2023-02-12T15:38:35;26.57;;;18.00;;
9256;SDS011;4665;51.368;6.782;2023-02-12T15:41:04;23.87;;;17.70;;
9256;SDS011;4665;51.368;6.782;2023-02-12T15:43:32;26.00;;;17.97;;
9256;SDS011;4665;51.368;6.782;2023-02-12T15:46:00;20.80;;;16.37;;
9256;SDS011;4665;51.368;6.782;2023-02-12T15:48:29;22.80;;;17.73;;
9256;SDS011;4665;51.368;6.782;2023-02-12T15:51:02;20.37;;;15.57;;
9256;SDS011;4665;51.368;6.782;2023-02-12T15:53:30;19.87;;;17.20;;
9256;SDS011;4665;51.368;6.782;2023-02-12T15:55:57;23.20;;;17.77;;
9256;SDS011;4665;51.368;6.782;2023-02-12T15:58:25;25.77;;;17.10;;
9256;SDS011;4665;51.368;6.782;2023-02-12T16:00:52;23.63;;;16.87;;
9256;SDS011;4665;51.368;6.782;2023-02-12T16:03:27;20.90;;;16.33;;
9256;SDS011;4665;51.368;6.782;2023-02-12T16:05:56;22.13;;;15.83;;
9256;SDS011;4665;51.368;6.782;2023-02-12T16:08:27;23.03;;;15.47;;
9256;SDS011;4665;51.368;6.782;2023-02-12T16:10:55;23.67;;;16.63;;
9256;SDS011;4665;51.368;6.782;2023-02-12T16:14:06;24.10;;;17.47;;
9256;SDS011;4665;51.368;6.782;2023-02-12T16:18:39;21.37;;;16.47;;
9256;SDS011;4665;51.368;6.782;2023-02-12T16:21:10;21.60;;;15.80;;
9256;SDS011;4665;51.368;6.782;2023-02-12T16:23:43;22.63;;;16.90;;
9256;SDS011;4665;51.368;6.782;2023-02-12T16:26:17;20.63;;;15.67;;
9256;SDS011;4665;51.368;6.782;2023-02-12T16:28:45;21.00;;;16.60;;
9256;SDS011;4665;51.368;6.782;2023-02-12T16:31:13;21.53;;;16.37;;
9256;SDS011;4665;51.368;6.782;2023-02-12T16:38:44;24.93;;;17.60;;
9256;SDS011;4665;51.368;6.782;2023-02-12T16:44:19;22.17;;;17.70;;
9256;SDS011;4665;51.368;6.782;2023-02-12T16:46:45;22.40;;;17.30;;
9256;SDS011;4665;51.368;6.782;2023-02-12T16:49:17;20.00;;;16.17;;
9256;SDS011;4665;51.368;6.782;2023-02-12T16:51:45;24.07;;;18.17;;
9256;SDS011;4665;51.368;6.782;2023-02-12T16:54:28;23.43;;;17.37;;
9256;SDS011;4665;51.368;6.782;2023-02-12T16:56:58;22.70;;;16.37;;
9256;SDS011;4665;51.368;6.782;2023-02-12T16:59:25;21.53;;;16.90;;
9256;SDS011;4665;51.368;6.782;2023-02-12T17:04:23;25.27;;;17.40;;
9256;SDS011;4665;51.368;6.782;2023-02-12T17:06:48;20.87;;;15.47;;
9256;SDS011;4665;51.368;6.782;2023-02-12T17:09:13;23.43;;;18.40;;
9256;SDS011;4665;51.368;6.782;2023-02-12T17:11:39;24.40;;;17.93;;
9256;SDS011;4665;51.368;6.782;2023-02-12T17:14:08;29.67;;;18.50;;
9256;SDS011;4665;51.368;6.782;2023-02-12T17:16:38;22.23;;;17.87;;
9256;SDS011;4665;51.368;6.782;2023-02-12T17:19:03;24.73;;;17.93;;
9256;SDS011;4665;51.368;6.782;2023-02-12T17:21:32;21.03;;;15.20;;
9256;SDS011;4665;51.368;6.782;2023-02-12T17:26:38;25.83;;;17.93;;
9256;SDS011;4665;51.368;6.782;2023-02-12T17:29:03;25.17;;;18.70;;
9256;SDS011;4665;51.368;6.782;2023-02-12T17:31:33;27.47;;;18.63;;
9256;SDS011;4665;51.368;6.782;2023-02-12T17:33:59;24.83;;;17.93;;
9256;SDS011;4665;51.368;6.782;2023-02-12T17:36:25;26.53;;;19.17;;
9256;SDS011;4665;51.368;6.782;2023-02-12T17:38:50;26.60;;;20.17;;
9256;SDS011;4665;51.368;6.782;2023-02-12T17:41:16;25.23;;;19.17;;
9256;SDS011;4665;51.368;6.782;2023-02-12T17:43:42;26.57;;;19.13;;
9256;SDS011;4665;51.368;6.782;2023-02-12T17:46:08;28.77;;;19.77;;
9256;SDS011;4665;51.368;6.782;2023-02-12T17:48:35;29.27;;;20.37;;
9256;SDS011;4665;51.368;6.782;2023-02-12T17:51:00;30.77;;;19.83;;
9256;SDS011;4665;51.368;6.782;2023-02-12T17:53:26;26.87;;;20.10;;
9256;SDS011;4665;51.368;6.782;2023-02-12T17:55:51;28.87;;;20.27;;
9256;SDS011;4665;51.368;6.782;2023-02-12T17:58:17;23.67;;;18.50;;
9256;SDS011;4665;51.368;6.782;2023-02-12T18:00:42;27.87;;;20.87;;
9256;SDS011;4665;51.368;6.782;2023-02-12T18:03:08;26.70;;;19.83;;
9256;SDS011;4665;51.368;6.782;2023-02-12T18:05:38;23.97;;;19.33;;
9256;SDS011;4665;51.368;6.782;2023-02-12T18:08:05;30.77;;;19.63;;
9256;SDS011;4665;51.368;6.782;2023-02-12T18:10:30;29.03;;;20.70;;
9256;SDS011;4665;51.368;6.782;2023-02-12T18:12:55;24.93;;;19.67;;
9256;SDS011;4665;51.368;6.782;2023-02-12T18:15:21;23.13;;;18.43;;
9256;SDS011;4665;51.368;6.782;2023-02-12T18:17:46;26.20;;;19.10;;
9256;SDS011;4665;51.368;6.782;2023-02-12T18:20:12;24.33;;;18.43;;
9256;SDS011;4665;51.368;6.782;2023-02-12T18:22:38;26.87;;;19.70;;
9256;SDS011;4665;51.368;6.782;2023-02-12T18:25:03;30.30;;;20.37;;
9256;SDS011;4665;51.368;6.782;2023-02-12T18:27:29;27.00;;;19.30;;
9256;SDS011;4665;51.368;6.782;2023-02-12T18:29:54;27.67;;;18.87;;
9256;SDS011;4665;51.368;6.782;2023-02-12T18:32:21;24.77;;;17.33;;
9256;SDS011;4665;51.368;6.782;2023-02-12T18:34:47;24.23;;;17.40;;
9256;SDS011;4665;51.368;6.782;2023-02-12T18:37:13;26.10;;;17.90;;
9256;SDS011;4665;51.368;6.782;2023-02-12T18:39:38;22.93;;;18.30;;
9256;SDS011;4665;51.368;6.782;2023-02-12T18:42:04;25.20;;;18.23;;
9256;SDS011;4665;51.368;6.782;2023-02-12T18:44:30;22.97;;;18.50;;
9256;SDS011;4665;51.368;6.782;2023-02-12T18:46:56;27.67;;;19.10;;
9256;SDS011;4665;51.368;6.782;2023-02-12T18:49:23;24.83;;;17.63;;
9256;SDS011;4665;51.368;6.782;2023-02-12T18:51:50;23.97;;;18.30;;
9256;SDS011;4665;51.368;6.782;2023-02-12T18:54:15;25.83;;;19.00;;
9256;SDS011;4665;51.368;6.782;2023-02-12T18:56:41;21.53;;;17.17;;
9256;SDS011;4665;51.368;6.782;2023-02-12T18:59:10;24.37;;;18.10;;
9256;SDS011;4665;51.368;6.782;2023-02-12T19:01:36;25.03;;;17.30;;
9256;SDS011;4665;51.368;6.782;2023-02-12T19:04:03;22.80;;;17.23;;
9256;SDS011;4665;51.368;6.782;2023-02-12T19:06:31;25.77;;;18.10;;
9256;SDS011;4665;51.368;6.782;2023-02-12T19:08:59;19.97;;;16.77;;
9256;SDS011;4665;51.368;6.782;2023-02-12T19:11:26;22.20;;;17.03;;
9256;SDS011;4665;51.368;6.782;2023-02-12T19:13:52;26.70;;;17.90;;
9256;SDS011;4665;51.368;6.782;2023-02-12T19:16:18;24.03;;;18.40;;
9256;SDS011;4665;51.368;6.782;2023-02-12T19:18:48;23.77;;;17.53;;
9256;SDS011;4665;51.368;6.782;2023-02-12T19:21:25;20.40;;;16.70;;
9256;SDS011;4665;51.368;6.782;2023-02-12T19:23:51;25.10;;;17.57;;
9256;SDS011;4665;51.368;6.782;2023-02-12T19:26:18;23.67;;;17.60;;
9256;SDS011;4665;51.368;6.782;2023-02-12T19:28:44;21.67;;;16.63;;
9256;SDS011;4665;51.368;6.782;2023-02-12T19:31:14;21.03;;;16.77;;
9256;SDS011;4665;51.368;6.782;2023-02-12T19:33:42;25.20;;;17.87;;
9256;SDS011;4665;51.368;6.782;2023-02-12T19:36:09;24.20;;;17.90;;
9256;SDS011;4665;51.368;6.782;2023-02-12T19:38:36;24.07;;;17.47;;
9256;SDS011;4665;51.368;6.782;2023-02-12T19:41:02;24.40;;;16.77;;
9256;SDS011;4665;51.368;6.782;2023-02-12T19:43:31;20.07;;;16.83;;
9256;SDS011;4665;51.368;6.782;2023-02-12T19:46:01;22.13;;;17.40;;
9256;SDS011;4665;51.368;6.782;2023-02-12T19:48:28;22.63;;;17.90;;
9256;SDS011;4665;51.368;6.782;2023-02-12T19:50:54;21.10;;;16.33;;
9256;SDS011;4665;51.368;6.782;2023-02-12T19:53:20;23.43;;;17.47;;
9256;SDS011;4665;51.368;6.782;2023-02-12T19:55:45;22.73;;;16.90;;
9256;SDS011;4665;51.368;6.782;2023-02-12T19:58:11;20.90;;;16.90;;
9256;SDS011;4665;51.368;6.782;2023-02-12T20:00:36;20.83;;;16.80;;
9256;SDS011;4665;51.368;6.782;2023-02-12T20:03:02;21.13;;;16.83;;
9256;SDS011;4665;51.368;6.782;2023-02-12T20:05:27;20.73;;;16.20;;
9256;SDS011;4665;51.368;6.782;2023-02-12T20:07:53;22.23;;;17.70;;
9256;SDS011;4665;51.368;6.782;2023-02-12T20:10:18;20.80;;;16.23;;
9256;SDS011;4665;51.368;6.782;2023-02-12T20:12:43;21.53;;;16.00;;